createdAt,value
2022-08-03T00:02:27.198Z,79.62
2022-08-03T00:07:30.086Z,79.41
2022-08-03T00:12:33.030Z,79.39
2022-08-03T00:17:53.051Z,79.29
2022-08-03T00:22:57.353Z,79.31
2022-08-03T00:28:01.451Z,79.45
2022-08-03T00:33:04.409Z,79.56
2022-08-03T00:38:07.445Z,79.92
2022-08-03T00:43:10.932Z,80.09
2022-08-03T00:48:29.757Z,80.28
2022-08-03T00:53:36.463Z,80.60
2022-08-03T00:58:39.327Z,80.33
2022-08-03T01:03:42.312Z,80.22
2022-08-03T01:09:17.317Z,80.13
2022-08-03T01:14:27.665Z,80.27
2022-08-03T01:20:10.802Z,80.48
2022-08-03T01:25:59.420Z,80.71
2022-08-03T01:31:06.985Z,81.11
2022-08-03T01:36:26.985Z,81.25
2022-08-03T01:41:33.841Z,81.12
2022-08-03T01:46:38.354Z,81.15
2022-08-03T01:52:02.698Z,80.83
2022-08-03T01:57:05.858Z,80.85
2022-08-03T02:02:15.664Z,80.96
2022-08-03T02:07:32.229Z,80.80
2022-08-03T02:12:35.126Z,80.64
2022-08-03T02:17:39.501Z,80.70
2022-08-03T02:22:43.924Z,80.66
2022-08-03T02:27:52.937Z,80.58
2022-08-03T02:32:56.459Z,80.83
2022-08-03T02:38:04.344Z,80.82
2022-08-03T02:43:10.715Z,81.32
2022-08-03T02:48:18.339Z,82.04
2022-08-03T02:53:22.255Z,82.71
2022-08-03T02:58:25.084Z,82.60
2022-08-03T03:03:27.840Z,82.58
2022-08-03T03:08:33.503Z,82.26
2022-08-03T03:13:38.027Z,82.19
2022-08-03T03:18:40.837Z,82.07
2022-08-03T03:23:43.707Z,81.96
2022-08-03T03:28:46.616Z,82.07
2022-08-03T03:33:49.477Z,82.27
2022-08-03T03:38:53.770Z,82.57
2022-08-03T03:43:56.956Z,82.64
2022-08-03T03:48:59.879Z,82.51
2022-08-03T03:54:04.690Z,82.57
2022-08-03T03:59:07.544Z,82.76
2022-08-03T04:11:29.069Z,82.92
2022-08-03T04:16:41.873Z,82.71
2022-08-03T04:21:48.714Z,82.70
2022-08-03T04:26:52.870Z,82.82
2022-08-03T04:31:56.198Z,82.83
2022-08-03T04:37:00.876Z,82.87
2022-08-03T04:42:09.052Z,82.93
2022-08-03T04:47:12.438Z,83.34
2022-08-03T04:52:15.507Z,83.37
2022-08-03T04:57:22.473Z,83.87
2022-08-03T05:02:26.302Z,83.53
2022-08-03T05:07:35.621Z,83.20
2022-08-03T05:12:42.024Z,82.83
2022-08-03T05:17:44.956Z,82.88
2022-08-03T05:22:47.815Z,82.55
2022-08-03T05:27:50.544Z,82.33
2022-08-03T05:32:53.647Z,81.93
2022-08-03T05:37:56.450Z,81.76
2022-08-03T05:42:59.215Z,81.35
2022-08-03T05:48:02.064Z,80.78
2022-08-03T05:53:04.877Z,80.63
2022-08-03T05:58:07.663Z,80.36
2022-08-03T06:03:10.411Z,79.93
2022-08-03T06:08:15.454Z,79.90
2022-08-03T06:13:18.551Z,79.50
2022-08-03T06:18:21.489Z,79.44
2022-08-03T06:23:53.116Z,79.62
2022-08-03T06:28:52.157Z,79.60
2022-08-03T06:34:32.194Z,79.53
2022-08-03T06:39:19.219Z,78.81
2022-08-03T06:44:22.050Z,78.82
2022-08-03T06:49:24.997Z,79.27
2022-08-03T06:54:28.001Z,78.87
2022-08-03T07:00:09.848Z,78.40
2022-08-03T07:04:53.832Z,77.93
2022-08-03T07:09:58.201Z,77.92
2022-08-03T07:15:03.131Z,77.94
2022-08-03T07:20:08.219Z,78.07
2022-08-03T07:25:11.037Z,77.71
2022-08-03T07:30:14.721Z,76.88
2022-08-03T07:35:24.903Z,76.68
2022-08-03T07:40:31.635Z,76.48
2022-08-03T07:45:34.937Z,76.21
2022-08-03T07:50:37.698Z,75.91
2022-08-03T07:55:40.545Z,75.09
2022-08-03T08:00:44.796Z,73.65
2022-08-03T08:05:48.599Z,73.03
2022-08-03T08:10:58.215Z,72.66
2022-08-03T08:16:01.441Z,71.77
2022-08-03T08:21:04.308Z,70.90
2022-08-03T08:26:09.295Z,70.54
2022-08-03T08:31:12.059Z,69.62
2022-08-03T08:36:15.873Z,67.73
2022-08-03T08:41:19.454Z,66.92
2022-08-03T08:46:23.259Z,64.86
2022-08-03T08:51:50.981Z,64.27
2022-08-03T08:57:06.655Z,62.64
2022-08-03T09:02:20.104Z,61.48
2022-08-03T09:07:23.115Z,60.16
2022-08-03T09:12:42.625Z,59.16
2022-08-03T09:17:50.654Z,58.87
2022-08-03T09:22:57.602Z,57.72
2022-08-03T09:28:13.204Z,55.08
2022-08-03T09:33:47.593Z,54.07
2022-08-03T09:39:14.684Z,52.91
2022-08-03T09:44:25.670Z,51.65
2022-08-03T09:49:29.070Z,49.11
2022-08-03T09:54:32.592Z,50.11
2022-08-03T09:59:35.431Z,48.52
2022-08-03T10:04:51.077Z,47.68
2022-08-03T10:10:29.059Z,49.37
2022-08-03T10:16:22.022Z,48.26
2022-08-03T10:20:59.091Z,44.37
2022-08-03T10:26:05.568Z,42.12
2022-08-03T10:31:08.500Z,39.85
2022-08-03T10:36:13.668Z,40.85
2022-08-03T10:41:16.666Z,42.80
2022-08-03T10:46:20.681Z,42.77
2022-08-03T10:51:24.055Z,40.70
2022-08-03T10:56:50.975Z,38.71
2022-08-03T11:01:59.225Z,34.67
2022-08-03T11:07:25.420Z,35.91
2022-08-03T11:12:32.240Z,35.68
2022-08-03T11:17:46.162Z,35.03
2022-08-03T11:23:01.321Z,33.79
2022-08-03T11:28:29.257Z,31.04
2022-08-03T11:33:33.508Z,28.43
2022-08-03T11:38:36.219Z,26.48
2022-08-03T11:43:44.114Z,26.02
2022-08-03T11:48:49.350Z,24.08
2022-08-03T11:54:00.856Z,23.21
2022-08-03T11:59:20.768Z,23.05
2022-08-03T12:04:24.420Z,20.93
2022-08-03T12:09:27.199Z,20.64
2022-08-03T12:14:49.684Z,19.68
2022-08-03T12:19:53.387Z,19.71
2022-08-03T12:24:56.140Z,18.94
2022-08-03T12:30:00.175Z,18.80
2022-08-03T12:35:04.682Z,18.80
2022-08-03T12:40:13.270Z,18.19
2022-08-03T12:45:20.434Z,16.87
2022-08-03T12:50:31.575Z,17.67
2022-08-03T12:55:56.423Z,17.25
2022-08-03T13:00:57.733Z,16.87
2022-08-03T13:06:00.495Z,16.40
2022-08-03T13:11:55.418Z,17.32
2022-08-03T13:16:49.756Z,18.85
2022-08-03T13:22:01.918Z,20.34
2022-08-03T13:28:01.270Z,18.83
2022-08-03T13:32:30.471Z,17.16
2022-08-03T13:37:34.134Z,16.11
2022-08-03T13:42:37.150Z,16.13
2022-08-03T13:47:41.544Z,19.65
2022-08-03T13:52:46.373Z,26.12
2022-08-03T13:58:03.731Z,26.57
2022-08-03T14:03:14.242Z,25.63
2022-08-03T14:08:18.323Z,24.93
2022-08-03T14:13:21.203Z,25.14
2022-08-03T14:18:28.805Z,23.05
2022-08-03T14:23:37.853Z,20.91
2022-08-03T14:28:40.984Z,24.51
2022-08-03T14:33:43.791Z,27.28
2022-08-03T14:38:46.533Z,28.75
2022-08-03T14:44:01.658Z,32.42
2022-08-03T14:50:34.541Z,34.60
2022-08-03T14:54:31.125Z,32.15
2022-08-03T14:59:56.793Z,30.63
2022-08-03T15:04:56.885Z,30.15
2022-08-03T15:09:59.705Z,32.28
2022-08-03T15:15:06.048Z,32.16
2022-08-03T15:20:28.885Z,32.66
2022-08-03T15:26:27.884Z,32.05
2022-08-03T15:30:57.073Z,32.12
2022-08-03T15:36:00.334Z,32.57
2022-08-03T15:41:03.270Z,33.26
2022-08-03T15:46:28.822Z,36.22
2022-08-03T15:51:29.012Z,37.63
2022-08-03T15:56:31.910Z,36.47
2022-08-03T16:01:34.898Z,37.20
2022-08-03T16:06:37.840Z,37.07
2022-08-03T16:11:40.680Z,37.53
2022-08-03T16:16:44.038Z,37.35
2022-08-03T16:21:48.727Z,36.41
2022-08-03T16:26:51.918Z,37.75
2022-08-03T16:31:54.699Z,39.58
2022-08-03T16:36:57.611Z,40.35
2022-08-03T16:42:01.731Z,40.69
2022-08-03T16:47:04.913Z,43.78
2022-08-03T16:52:07.806Z,44.30
2022-08-03T16:57:10.517Z,44.10
2022-08-03T17:02:28.340Z,45.93
2022-08-03T17:07:31.683Z,47.16
2022-08-03T17:12:34.484Z,48.46
2022-08-03T17:17:56.263Z,48.79
2022-08-03T17:23:34.855Z,49.86
2022-08-03T17:28:51.975Z,50.72
2022-08-03T17:34:01.443Z,51.42
2022-08-03T17:39:06.505Z,52.78
2022-08-03T17:44:15.423Z,54.22
2022-08-03T17:49:32.369Z,55.58
2022-08-03T17:55:54.915Z,55.91
2022-08-03T18:00:55.885Z,56.81
2022-08-03T18:06:11.106Z,57.55
2022-08-03T18:11:21.792Z,57.98
2022-08-03T18:17:01.249Z,59.07
2022-08-03T18:22:04.578Z,59.26
2022-08-03T18:27:08.042Z,59.54
2022-08-03T18:32:16.746Z,59.90
2022-08-03T18:37:25.739Z,60.11
2022-08-03T18:42:28.889Z,60.88
2022-08-03T18:47:58.087Z,61.37
2022-08-03T18:53:22.897Z,61.83
2022-08-03T18:59:02.517Z,61.75
2022-08-03T19:04:35.114Z,62.38
2022-08-03T19:09:52.630Z,62.64
2022-08-03T19:15:12.959Z,63.36
2022-08-03T19:20:22.783Z,63.62
2022-08-03T19:25:34.676Z,63.87
2022-08-03T19:30:46.433Z,64.20
2022-08-03T19:35:57.128Z,64.68
2022-08-03T19:41:03.792Z,65.31
2022-08-03T19:46:14.136Z,65.36
2022-08-03T19:51:17.078Z,65.96
2022-08-03T19:56:24.712Z,66.83
2022-08-03T20:01:28.254Z,67.11
2022-08-03T20:06:31.181Z,67.54
2022-08-03T20:11:45.228Z,68.25
2022-08-03T20:16:48.749Z,68.64
2022-08-03T20:21:53.486Z,69.50
2022-08-03T20:26:58.344Z,69.57
2022-08-03T20:32:01.437Z,70.16
2022-08-03T20:37:05.283Z,70.79
2022-08-03T20:42:12.536Z,71.03
2022-08-03T20:47:23.645Z,71.27
2022-08-03T20:52:28.136Z,71.97
2022-08-03T20:57:33.174Z,71.58
2022-08-03T21:02:38.186Z,71.82
2022-08-03T21:08:05.078Z,71.64
2022-08-03T21:13:28.599Z,71.56
2022-08-03T21:18:31.469Z,71.94
2022-08-03T21:23:41.541Z,71.54
2022-08-03T21:28:52.664Z,71.62
2022-08-03T21:34:01.705Z,71.67
2022-08-03T21:39:07.098Z,71.90
2022-08-03T21:44:10.081Z,72.34
2022-08-03T21:49:51.915Z,72.72
2022-08-03T21:54:42.595Z,72.82
2022-08-03T21:59:55.765Z,73.22
2022-08-03T22:04:58.566Z,73.26
2022-08-03T22:10:02.451Z,73.35
2022-08-03T22:15:09.021Z,73.50
2022-08-03T22:20:14.741Z,73.55
2022-08-03T22:25:17.509Z,73.30
2022-08-03T22:30:20.281Z,73.47
2022-08-03T22:35:24.829Z,73.43
2022-08-03T22:40:28.153Z,73.45
2022-08-03T22:46:07.817Z,73.45
2022-08-03T22:50:53.925Z,73.54
2022-08-03T22:55:56.862Z,73.63
2022-08-03T23:01:09.035Z,73.54
2022-08-03T23:06:11.802Z,73.38
2022-08-03T23:11:14.558Z,73.56
2022-08-03T23:16:28.924Z,73.51
2022-08-03T23:22:00.154Z,73.87
2022-08-03T23:26:55.519Z,73.79
2022-08-03T23:31:59.588Z,73.98
2022-08-03T23:37:02.454Z,73.90
2022-08-03T23:42:05.308Z,74.10
2022-08-03T23:47:09.147Z,74.43
2022-08-03T23:52:29.981Z,74.15
2022-08-03T23:57:46.820Z,74.50
